Terminal Aerodrome Forecast
Issued by NWS Portland, OR

Home | Current Version | Previous Version | Text Only | Print | Product List | Glossary On
Versions: 1 2 3 4 5 6 7 8 9 10 11 12 13 14 15 16 17 18 19 20 21 22 23 24 25 26 27 28 29 30 31 32 33 34 35
000
FTUS46 KPQR 282335
TAFHIO
TAF
KHIO 282335Z 2900/2924 18012G22KT 6SM -RA BKN015 OVC030
     FM290200 25011KT 4SM -RA BKN015 OVC035
     FM290400 28010KT P6SM -SHRA SCT020 OVC040
     FM291000 28006KT P6SM -SHRASN BKN020 BKN045
     FM291800 31007KT P6SM VCSH SCT030 BKN050
     FM292100 32007KT P6SM SCT050=

USA.gov is the U.S. government's official web portal to all federal, state and local government web resources and services.